Data for 07/10/2009

Time Sea-Level Adjusted Pressure Absolute Pressure Temperature Relative Humidity Dew Point   
(mb) (inHg) (mb) (inHg) (C) (F) (%) (C) (F)
00:05 1023 30.21 852 25.16 10.3 50.5 83 7.5 45.5
00:10 1023 30.21 852 25.16 10.3 50.5 83 7.5 45.6
00:15 1023 30.21 852 25.16 10.3 50.5 81 7.1 44.9
00:20 1023 30.21 852 25.16 10.4 50.6 81 7.3 45.1
00:25 1023 30.21 852 25.16 10.3 50.6 79 6.9 44.5
00:30 1023 30.21 852 25.16 10.3 50.5 83 7.6 45.6
00:35 1023 30.21 852 25.16 10 50.1 85 7.6 45.8
00:40 1023 30.21 852 25.16 9.9 49.7 80 6.6 43.8
00:45 1023 30.21 852 25.16 10.3 50.5 79 6.8 44.3
00:50 1023 30.21 852 25.16 10.2 50.3 84 7.5 45.6
00:55 1023 30.21 852 25.16 9.8 49.7 82 6.9 44.4
01:00 1023 30.21 852 25.16 9.9 49.7 82 7 44.6
01:05 1023 30.21 852 25.16 9.9 49.9 82 6.9 44.5
01:10 1023 30.21 852 25.16 10 50 80 6.8 44.2
01:15 1023 30.21 852 25.16 10 50.1 80 6.7 44.1
01:20 1023 30.21 852 25.16 10.2 50.3 79 6.7 44
01:25 1023 30.21 852 25.16 10.2 50.3 79 6.7 44
01:30 1023 30.21 852 25.16 10.2 50.3 77 6.3 43.4
01:35 1022 30.18 852 25.16 10.2 50.3 78 6.6 43.8
01:40 1022 30.18 852 25.16 10.1 50.1 79 6.6 43.9
01:45 1022 30.18 852 25.16 10.1 50.1 79 6.6 43.9
01:50 1022 30.18 851 25.13 10.1 50.1 79 6.7 44
01:55 1022 30.18 851 25.13 10.1 50.2 77 6.2 43.2
02:00 1022 30.18 851 25.13 10.2 50.4 78 6.6 43.9
02:05 1022 30.18 851 25.13 10.2 50.3 77 6.4 43.5
02:10 1022 30.18 851 25.13 10.3 50.5 77 6.4 43.5
02:15 1022 30.18 851 25.13 10.2 50.4 76 6.3 43.3
02:20 1022 30.18 851 25.13 10.1 50.2 77 6.4 43.5
02:25 1022 30.18 851 25.13 10.1 50.1 76 6.1 42.9
02:30 1022 30.18 851 25.13 10.2 50.3 76 6.2 43.2
02:35 1022 30.18 851 25.13 10.1 50.3 76 6.1 42.9
02:40 1022 30.18 851 25.13 10.1 50.2 76 6.1 42.9
02:45 1022 30.18 851 25.13 10.1 50.1 76 6 42.9
02:50 1022 30.18 851 25.13 10 50.1 76 6.1 42.9
02:55 1022 30.18 851 25.13 10 50.1 77 6.1 43
03:00 1022 30.18 851 25.13 9.9 49.8 77 6.1 43
03:05 1022 30.18 851 25.13 9.7 49.5 78 6 42.8
03:10 1022 30.18 851 25.13 9.7 49.4 78 6 42.8
03:15 1022 30.18 851 25.13 9.6 49.3 77 5.7 42.3
03:20 1022 30.18 852 25.16 9.6 49.3 77 5.9 42.5
03:25 1022 30.18 852 25.16 9.5 49.1 78 5.8 42.4
03:30 1022 30.18 852 25.16 9.4 48.9 78 5.8 42.4
03:35 1022 30.18 852 25.16 9.3 48.8 78 5.7 42.2
03:40 1022 30.18 852 25.16 9.4 48.8 77 5.6 42.1
03:45 1023 30.21 852 25.16 9.3 48.7 78 5.6 42.1
03:50 1023 30.21 852 25.16 9.2 48.6 78 5.6 42.1
03:55 1023 30.21 852 25.16 9.1 48.4 78 5.6 42
04:00 1023 30.21 852 25.16 8.9 48.1 79 5.6 42
04:05 1023 30.21 852 25.16 8.8 47.9 79 5.5 41.8
04:10 1023 30.21 852 25.16 8.8 47.8 79 5.4 41.7
04:15 1023 30.21 852 25.16 8.9 48 78 5.3 41.5
04:20 1023 30.21 852 25.16 8.9 48.1 77 5.2 41.4
04:25 1023 30.21 852 25.16 8.8 47.9 77 5.1 41.1
04:30 1023 30.21 852 25.16 8.8 47.8 75 4.7 40.4
04:35 1023 30.21 852 25.16 8.7 47.7 77 4.9 40.9
04:40 1023 30.21 852 25.16 8.4 47 79 4.9 40.9
04:45 1023 30.21 852 25.16 8.2 46.7 79 4.8 40.7
04:50 1023 30.21 852 25.16 8 46.5 80 4.7 40.5
04:55 1023 30.21 852 25.16 7.9 46.2 81 4.8 40.6
05:00 1023 30.21 852 25.16 7.7 45.8 82 4.7 40.5
05:05 1023 30.21 852 25.16 7.5 45.6 82 4.6 40.3
05:10 1023 30.21 852 25.16 7.4 45.4 82 4.6 40.3
05:15 1023 30.21 852 25.16 7.3 45.2 83 4.6 40.4
05:20 1023 30.21 853 25.19 7.2 44.9 84 4.6 40.3
05:25 1023 30.21 853 25.19 7 44.6 84 4.5 40.1
05:30 1023 30.21 853 25.19 6.9 44.5 85 4.5 40.1
05:35 1023 30.21 853 25.19 6.9 44.5 84 4.4 39.9
05:40 1023 30.21 853 25.19 7.1 44.8 82 4.3 39.8
05:45 1023 30.21 853 25.19 7.3 45.1 81 4.3 39.7
05:50 1023 30.21 853 25.19 7.4 45.3 81 4.4 39.9
05:55 1024 30.24 853 25.19 7.2 44.9 83 4.4 40
06:00 1024 30.24 853 25.19 6.9 44.5 83 4.3 39.8
06:05 1024 30.24 853 25.19 6.8 44.3 83 4.2 39.5
06:10 1024 30.24 853 25.19 7.1 44.7 81 4.1 39.4
06:15 1024 30.24 853 25.19 7.2 45 81 4.3 39.7
06:20 1024 30.24 853 25.19 7.3 45.2 80 4.2 39.5
06:25 1024 30.24 853 25.19 7.4 45.2 80 4.1 39.4
06:30 1024 30.24 853 25.19 7.5 45.5 79 4.1 39.4
06:35 1024 30.24 853 25.19 7.7 45.8 79 4.2 39.6
06:40 1024 30.24 853 25.19 7.8 46 79 4.3 39.8
06:45 1024 30.24 853 25.19 7.5 45.6 80 4.3 39.7
06:50 1024 30.24 853 25.19 7.6 45.7 79 4.2 39.5
06:55 1024 30.24 853 25.19 7.7 45.9 79 4.3 39.7
07:00 1024 30.24 853 25.19 7.9 46.2 78 4.3 39.8
07:05 1024 30.24 853 25.19 8.1 46.6 78 4.5 40.1
07:10 1024 30.24 853 25.19 8.4 47 77 4.5 40.2
07:15 1024 30.24 853 25.19 8.7 47.7 76 4.7 40.5
07:20 1024 30.24 853 25.19 8.9 47.9 76 4.9 40.8
07:25 1024 30.24 853 25.19 8.9 47.9 76 4.9 40.9
07:30 1024 30.24 853 25.19 9.3 48.7 75 5 41
07:35 1024 30.24 853 25.19 9.7 49.5 73 5.2 41.4
07:40 1024 30.24 853 25.19 9.8 49.6 73 5.3 41.5
07:45 1024 30.24 853 25.19 9.9 49.8 73 5.3 41.6
07:50 1024 30.24 853 25.19 10.2 50.4 73 5.6 42.1
07:55 1024 30.24 853 25.19 10.7 51.3 71 5.6 42.1
08:00 1024 30.24 853 25.19 10.8 51.5 70 5.6 42.1
08:05 1024 30.24 853 25.19 11.5 52.7 67 5.6 42
08:10 1024 30.24 853 25.19 11.9 53.5 64 5.3 41.5
08:15 1024 30.24 853 25.19 12.6 54.6 64 6.1 42.9
08:20 1024 30.24 853 25.19 12.9 55.3 63 6 42.8
08:25 1024 30.24 853 25.19 13.4 56 61 6 42.7
08:30 1024 30.24 853 25.19 13.5 56.4 60 6 42.8
08:35 1024 30.24 853 25.19 13.5 56.3 61 6.1 43
08:40 1024 30.24 853 25.19 13.7 56.7 57 5.5 41.9
08:45 1024 30.24 853 25.19 14.5 58.1 55 5.7 42.3
08:50 1024 30.24 853 25.19 15.1 59.2 54 5.9 42.6
08:55 1024 30.24 854 25.22 15.4 59.7 54 6.3 43.4
09:00 1024 30.24 854 25.22 15.5 60 53 6.2 43.1
09:05 1024 30.24 854 25.22 15.8 60.5 51 5.9 42.5
09:10 1024 30.24 854 25.22 15.9 60.6 51 5.9 42.7
09:15 1024 30.24 854 25.22 16 60.8 51 5.9 42.6
09:20 1024 30.24 854 25.22 15.7 60.3 51 5.8 42.5
09:25 1024 30.24 854 25.22 16 60.8 50 5.7 42.3
09:30 1024 30.24 854 25.22 16.4 61.6 48 5.4 41.8
09:35 1025 30.27 854 25.22 16.7 62.1 47 5.3 41.6
09:40 1024 30.24 854 25.22 16.5 61.6 49 5.9 42.7
09:45 1024 30.24 854 25.22 15.8 60.4 51 5.8 42.5
09:50 1024 30.24 854 25.22 16.3 61.3 46 4.6 40.3
09:55 1024 30.24 854 25.22 16.5 61.7 50 6.2 43.1
10:00 1024 30.24 854 25.22 16.1 61.1 48 5.3 41.5
10:05 1024 30.24 854 25.22 16.8 62.2 47 5.5 42
10:10 1024 30.24 854 25.22 17.3 63.2 45 5.4 41.7
10:15 1024 30.24 854 25.22 17.8 64 43 5.3 41.5
10:20 1024 30.24 854 25.22 17.8 64 43 5.3 41.6
10:25 1024 30.24 854 25.22 17.9 64.2 45 5.9 42.6
10:30 1024 30.24 853 25.19 17.2 63 47 6.1 42.9
10:35 1024 30.24 853 25.19 16.5 61.7 47 5.4 41.7
10:40 1024 30.24 853 25.19 17 62.5 44 4.8 40.7
10:45 1024 30.24 853 25.19 18 64.3 44 5.7 42.3
10:50 1024 30.24 853 25.19 17.9 64.2 44 5.6 42.1
10:55 1024 30.24 853 25.19 18.1 64.6 43 5.6 42
11:00 1024 30.24 853 25.19 18.5 65.2 43 5.7 42.3
11:05 1024 30.24 853 25.19 18.1 64.6 42 5.2 41.4
11:10 1024 30.24 853 25.19 18.8 65.8 42 5.7 42.3
11:15 1024 30.24 853 25.19 18.4 65.1 42 5.4 41.8
11:20 1024 30.24 853 25.19 19.3 66.8 40 5.4 41.8
11:25 1024 30.24 853 25.19 18.7 65.7 41 5.3 41.5
11:30 1024 30.24 853 25.19 18.7 65.7 39 4.7 40.5
11:35 1024 30.24 853 25.19 19.4 66.9 37 4.6 40.3
11:40 1024 30.24 853 25.19 19.6 67.2 40 5.7 42.3
11:45 1024 30.24 853 25.19 18.8 65.8 41 5.3 41.5
11:50 1024 30.24 853 25.19 18.9 66.1 38 4.3 39.8
11:55 1024 30.24 853 25.19 19.2 66.6 38 4.5 40.2
12:00 1024 30.24 853 25.19 19.4 66.9 36 4.2 39.6
12:05 1024 30.24 853 25.19 19 66.2 36 3.7 38.6
12:10 1024 30.24 853 25.19 19.6 67.3 35 4 39.2
12:15 1024 30.24 853 25.19 19.9 67.8 35 4.1 39.4
12:20 1024 30.24 853 25.19 19.5 67.2 35 3.9 39
12:25 1024 30.24 853 25.19 20.1 68.2 36 4.8 40.7
12:30 1024 30.24 853 25.19 19.8 67.7 35 4 39.1
12:35 1024 30.24 853 25.19 19.9 67.7 37 4.9 40.9
12:40 1024 30.24 853 25.19 20 67.9 36 4.6 40.3
12:45 1024 30.24 853 25.19 20.8 69.4 32 3.9 39
12:50 1024 30.24 853 25.19 20.8 69.5 34 4.7 40.4
12:55 1024 30.24 853 25.19 20.4 68.6 34 4.1 39.4
13:00 1024 30.24 853 25.19 20.1 68.1 35 4.4 39.9
13:05 1024 30.24 853 25.19 20.7 69.2 32 3.7 38.6
13:10 1024 30.24 853 25.19 20.7 69.3 33 4 39.1
13:15 1024 30.24 853 25.19 20.8 69.5 34 4.4 39.9
13:20 1024 30.24 853 25.19 21.1 69.9 33 4.3 39.7
13:25 1024 30.24 853 25.19 21.2 70.2 34 5.1 41.1
13:30 1024 30.24 853 25.19 21.2 70.2 32 4.1 39.4
13:35 1024 30.24 853 25.19 21.2 70.1 33 4.4 39.9
13:40 1024 30.24 853 25.19 21.4 70.5 31 3.8 38.8
13:45 1024 30.24 853 25.19 21.4 70.6 30 3.4 38.1
13:50 1024 30.24 853 25.19 21.2 70.2 32 4 39.2
13:55 1024 30.24 853 25.19 21.1 69.9 31 3.6 38.5
14:00 1024 30.24 853 25.19 21.9 71.4 29 3.4 38.1
14:05 1024 30.24 853 25.19 21.5 70.7 32 4.3 39.7
14:10 1024 30.24 853 25.19 21 69.8 31 3.3 37.9
14:15 1024 30.24 853 25.19 22 71.5 31 4 39.3
14:20 1023 30.21 853 25.19 21.4 70.5 28 2.5 36.5
14:25 1023 30.21 853 25.19 20.9 69.6 29 2.2 36
14:30 1023 30.21 853 25.19 21.7 71.1 29 2.9 37.2
14:35 1023 30.21 853 25.19 20.9 69.5 28 1.8 35.3
14:40 1023 30.21 853 25.19 20.9 69.7 29 2.2 35.9
14:45 1023 30.21 853 25.19 22 71.7 27 2.2 35.9
14:50 1023 30.21 853 25.19 22.3 72.1 27 2.7 36.8
14:55 1023 30.21 853 25.19 22.4 72.4 27 2.6 36.6
15:00 1023 30.21 853 25.19 22.7 72.8 27 2.8 37.1
15:05 1023 30.21 853 25.19 21.8 71.3 27 2.1 35.8
15:10 1023 30.21 852 25.16 22 71.7 27 2.2 35.9
15:15 1023 30.21 852 25.16 22.4 72.3 26 2.3 36.1
15:20 1023 30.21 853 25.19 22.2 72 27 2.8 37
15:25 1023 30.21 852 25.16 21.8 71.3 27 2.1 35.7
15:30 1023 30.21 852 25.16 22.5 72.5 27 2.6 36.7
15:35 1023 30.21 852 25.16 22.7 72.8 25 1.7 35
15:40 1023 30.21 852 25.16 21.7 71.1 27 2.3 36.2
15:45 1023 30.21 852 25.16 22.7 72.9 25 2 35.5
15:50 1023 30.21 852 25.16 22.8 73 26 2.6 36.7
15:55 1023 30.21 852 25.16 23.1 73.6 26 2.7 36.9
16:00 1023 30.21 852 25.16 22.7 72.9 27 3.2 37.7
16:05 1023 30.21 852 25.16 22.1 71.8 28 2.8 37.1
16:10 1023 30.21 852 25.16 22.6 72.6 27 2.9 37.1
16:15 1023 30.21 852 25.16 23.4 74.1 25 2.3 36.1
16:20 1023 30.21 852 25.16 22.9 73.3 29 4 39.1
16:25 1023 30.21 852 25.16 22.8 73.1 27 3.2 37.8
16:30 1023 30.21 852 25.16 23.3 74 26 2.7 36.9
16:35 1023 30.21 852 25.16 23.9 75 27 3.7 38.7
16:40 1023 30.21 852 25.16 23.2 73.7 28 3.6 38.5
16:45 1023 30.21 852 25.16 22.9 73.2 27 3.2 37.8
16:50 1023 30.21 852 25.16 23.6 74.5 26 3.4 38.1
16:55 1023 30.21 852 25.16 23.7 74.7 26 3.2 37.7
17:00 1023 30.21 852 25.16 23.6 74.6 25 3 37.3
17:05 1023 30.21 852 25.16 24 75.1 25 3.2 37.8
17:10 1023 30.21 852 25.16 23.9 75 26 3.4 38.2
17:15 1023 30.21 852 25.16 24.1 75.4 25 3.2 37.7
17:20 1022 30.18 852 25.16 23.4 74.2 26 3 37.4
17:25 1022 30.18 852 25.16 23.1 73.7 27 3.4 38.1
17:30 1022 30.18 852 25.16 23.6 74.5 27 3.8 38.8
17:35 1022 30.18 852 25.16 23.8 74.8 26 3.4 38.2
17:40 1022 30.18 852 25.16 23.6 74.4 26 3.4 38.1
17:45 1022 30.18 852 25.16 23.1 73.5 27 3.5 38.2
17:50 1022 30.18 852 25.16 23.2 73.8 27 3.5 38.2
17:55 1022 30.18 852 25.16 23.3 73.9 26 3.1 37.5
18:00 1022 30.18 852 25.16 23.4 74.1 27 3.6 38.4
18:05 1022 30.18 852 25.16 23.3 73.9 27 3.5 38.4
18:10 1022 30.18 852 25.16 23.6 74.5 26 3.4 38.1
18:15 1022 30.18 852 25.16 23.6 74.5 27 3.6 38.5
18:20 1022 30.18 852 25.16 23.3 73.9 26 2.9 37.1
18:25 1022 30.18 852 25.16 23.3 73.9 26 2.9 37.3
18:30 1022 30.18 852 25.16 23.1 73.7 27 3.3 37.9
18:35 1022 30.18 852 25.16 23.5 74.3 26 3.1 37.6
18:40 1022 30.18 852 25.16 23.1 73.5 27 3.2 37.8
18:45 1022 30.18 852 25.16 22.3 72.1 27 2.6 36.7
18:50 1022 30.18 852 25.16 22.7 72.8 25 1.6 34.9
18:55 1022 30.18 852 25.16 22.4 72.4 24 1.3 34.3
19:00 1022 30.18 852 25.16 22.4 72.3 23 0.2 32.4
19:05 1022 30.18 852 25.16 22.4 72.3 23 0.6 33.2
19:10 1022 30.18 852 25.16 23 73.3 23 1.1 34
19:15 1022 30.18 852 25.16 23.3 74 21 0.3 32.5
19:20 1022 30.18 852 25.16 23.6 74.4 22 1.1 33.9
19:25 1022 30.18 852 25.16 23.6 74.5 21 0.5 32.9
19:30 1022 30.18 851 25.13 23.1 73.6 22 0.6 33.1
19:35 1022 30.18 851 25.13 22.8 73 22 0.2 32.4
19:40 1022 30.18 852 25.16 22.6 72.7 22 0.3 32.5
19:45 1022 30.18 852 25.16 22.5 72.5 22 -0.3 31.4
19:50 1022 30.18 852 25.16 22.4 72.4 23 0.5 33
19:55 1022 30.18 852 25.16 22.3 72.2 23 0.2 32.4
20:00 1022 30.18 852 25.16 22.3 72.1 22 0.1 32.1
20:05 1022 30.18 852 25.16 22.3 72.2 22 -0.1 31.8
20:10 1022 30.18 852 25.16 22.4 72.3 24 0.8 33.5
20:15 1022 30.18 852 25.16 22.2 71.9 23 0.2 32.4
20:20 1022 30.18 852 25.16 22.1 71.7 23 0.2 32.3
20:25 1022 30.18 852 25.16 22 71.5 25 1.4 34.5
20:30 1022 30.18 852 25.16 21.8 71.2 24 0.5 33
20:35 1022 30.18 852 25.16 21.6 70.9 28 2.7 36.9
20:40 1023 30.21 852 25.16 21.4 70.4 35 5.3 41.5
20:45 1023 30.21 852 25.16 21 69.7 35 5.3 41.5
20:50 1023 30.21 852 25.16 20.6 69.1 39 6.4 43.5
20:55 1023 30.21 852 25.16 20.4 68.6 40 6.6 43.9
21:00 1023 30.21 852 25.16 20.1 68.1 45 8 46.4
21:05 1023 30.21 852 25.16 19.5 67.1 47 8.1 46.6
21:10 1023 30.21 852 25.16 19 66.1 47 7.7 45.8
21:15 1023 30.21 852 25.16 18.5 65.2 49 7.6 45.6
21:20 1023 30.21 852 25.16 18 64.3 53 8.2 46.8
21:25 1023 30.21 852 25.16 17.5 63.4 52 7.6 45.7
21:30 1023 30.21 852 25.16 17.1 62.8 52 7.3 45.2
21:35 1023 30.21 852 25.16 16.7 62 51 6.7 44
21:40 1023 30.21 852 25.16 16.6 61.9 47 5.2 41.4
21:45 1023 30.21 852 25.16 16.8 62.3 47 5.6 42
21:50 1023 30.21 852 25.16 16.7 62 48 5.7 42.3
21:55 1023 30.21 852 25.16 16.5 61.8 49 5.9 42.6
22:00 1023 30.21 852 25.16 16.3 61.3 49 5.8 42.5
22:05 1023 30.21 852 25.16 16.1 61.1 50 5.9 42.6
22:10 1023 30.21 852 25.16 16 60.9 51 6 42.8
22:15 1023 30.21 852 25.16 16 60.8 49 5.4 41.8
22:20 1023 30.21 852 25.16 16 60.8 48 5 41.1
22:25 1023 30.21 852 25.16 16.1 61 48 5.3 41.5
22:30 1023 30.21 852 25.16 15.8 60.5 49 5.4 41.7
22:35 1023 30.21 852 25.16 15.8 60.4 49 5 41.1
22:40 1023 30.21 852 25.16 15.9 60.6 49 5.2 41.3
22:45 1023 30.21 852 25.16 16 60.8 46 4.4 39.9
22:50 1023 30.21 852 25.16 16.1 61 47 5 41
22:55 1023 30.21 852 25.16 15.9 60.6 46 4.4 40
23:00 1023 30.21 852 25.16 16.1 61.1 43 3.5 38.3
23:05 1023 30.21 852 25.16 16.6 61.9 39 2.7 36.8
23:10 1023 30.21 852 25.16 16.9 62.3 40 3.2 37.7
23:15 1023 30.21 852 25.16 16.7 62 38 2.6 36.6
23:20 1023 30.21 852 25.16 17 62.5 36 1.8 35.2
23:25 1023 30.21 852 25.16 17.4 63.4 35 1.8 35.3
23:30 1023 30.21 852 25.16 17.4 63.3 36 2.4 36.3
23:35 1023 30.21 853 25.19 17 62.6 38 2.7 36.9
23:40 1023 30.21 852 25.16 16.5 61.8 39 2.5 36.5
23:45 1023 30.21 852 25.16 16.3 61.4 38 2 35.6
23:50 1023 30.21 853 25.19 16.4 61.5 38 2 35.7
23:55 1023 30.21 853 25.19 16.4 61.5 37 1.9 35.5
24:00 1023 30.21 853 25.19 16.1 61 40 2.4 36.4